world map with TBJ marked

TBJ - Airport

This information may not be accurate or current and is not valid for navigation or flight planning. No warranty of fitness for any purpose is made or implied.

flag of Tunisia

Donate via PayPal

Additional information is available on the NEW Great Circle Mapper

Location
City:  Tabarka, Tunisia
Name:An Draham International (7 Novembre International)
ICAO / IATA:DTKA / TBJ

Details
Type:Airport (Aerodrome, Airfield)
Use:Public/Civil
Latitude:3658'48"N (36.980000)
Longitude:852'37"E (8.876944)
Elevation:230 ft (70 m)
Runways:1
Longest:9416 × 148 ft (2870 × 45 m)

Time
Timezone:UTC+1 (DST+2)

Weather
METAR:DTKA  200000Z AUTO VRB02KT /// 12/09 Q1001
TAF:DTKA  (expired)

Related Locations
Nearby:
Farthest:CHT: 11884 mi / 19126 km
Waitangi [Tuuta], CIT, NZ

Find:

   beyond  
but within

Other Information
Maps:
Sources:

  


 


Great Circle Mapper   Great Circle Mapper
Great Circle Mapper FAQ   Great Circle Mapper FAQ
  Karl's Home Page
KLS   KLS Home
   GC on Facebook
Airlines of the World   Airlines of the World
Donate via PayPal


Copyright © 2004-2018, Karl L. Swartz. All rights reserved.
All trademarks mentioned herein belong to their respective owners.

Please see credits for attribution and copyright information.

Karl Swartz <karl@kls2.com>
  Powered by FreeBSD
Valid HTML 4.01!
Labeled with ICRA
hCard Microformat
Geo Microformat